.
WxDataArchive / Data Records for 2013-12-30
2013-12-29 December 2013 2013-12-31

Data Records for Monday, 30 December 2013

Time	Temp	Chill	HIndex	Humid	Dewpt	 Wind 	HiWind	WindDir	Rain 	Barom 
-----	----	-----	------	-----	-----	------	------	-------	-----	----- 
00:00	25.4	25.4	25.4	75	18.6	2	5	315	0.00	30.052 
00:05	25.3	25.3	25.3	73	17.9	1	4	248	0.00	30.052 
00:10	25.1	25.1	25.1	72	17.4	2	7	292	0.00	30.052 
00:15	25.1	25.1	25.1	71	17.0	1	4	338	0.00	30.051 
00:20	25.1	25.1	25.1	71	17.0	1	4	315	0.00	30.051 
00:25	25.1	25.1	25.1	71	17.0	1	4	248	0.00	30.051 
00:30	25.1	25.1	25.1	70	16.7	2	6	338	0.00	30.054 
00:35	25.1	25.1	25.1	70	16.7	2	9	315	0.00	30.054 
00:40	25.0	25.0	25.0	71	16.9	2	9	315	0.00	30.054 
00:45	25.0	25.0	25.0	71	16.9	1	4	338	0.00	30.053 
00:50	25.0	25.0	25.0	72	17.3	1	4	292	0.00	30.053 
00:55	24.8	24.8	24.8	72	17.1	1	4	315	0.00	30.053 
01:00	24.8	24.8	24.8	72	17.1	1	4	315	0.00	30.058 
01:05	24.8	24.8	24.8	72	17.1	2	3	292	0.00	30.058 
01:10	24.7	24.7	24.7	72	17.0	2	6	338	0.00	30.058 
01:15	24.7	24.7	24.7	73	17.3	1	6	315	0.00	30.061 
01:20	24.5	24.5	24.5	73	17.1	1	5	292	0.00	30.061 
01:25	24.5	24.5	24.5	72	16.8	1	4	292	0.00	30.061 
01:30	24.5	24.5	24.5	72	16.8	1	4	292	0.00	30.067 
01:35	24.5	24.5	24.5	72	16.8	1	3	292	0.00	30.067 
01:40	24.5	24.5	24.5	72	16.8	1	4	338	0.00	30.067 
01:45	24.5	24.5	24.5	72	16.8	1	5	315	0.00	30.073 
01:50	24.4	24.4	24.4	72	16.7	0	3	315	0.00	30.073 
01:55	24.4	24.4	24.4	72	16.7	2	4	270	0.00	30.073 
02:00	24.2	24.2	24.2	72	16.5	1	4	270	0.00	30.078 
02:05	24.1	24.1	24.1	72	16.4	1	4	270	0.00	30.078 
02:10	24.1	24.1	24.1	73	16.7	1	3	315	0.00	30.078 
02:15	23.9	23.9	23.9	73	16.5	1	2	315	0.00	30.087 
02:20	23.9	23.9	23.9	73	16.5	1	3	315	0.00	30.087 
02:25	24.1	24.1	24.1	73	16.7	1	6	315	0.00	30.087 
02:30	23.9	23.9	23.9	72	16.2	1	6	338	0.00	30.090 
02:35	23.9	23.9	23.9	72	16.2	1	3	338	0.00	30.090 
02:40	24.1	24.1	24.1	72	16.4	1	4	315	0.00	30.090 
02:45	23.9	23.9	23.9	71	15.9	2	6	315	0.00	30.101 
02:50	23.8	23.8	23.8	70	15.5	2	4	315	0.00	30.101 
02:55	23.8	23.8	23.8	70	15.5	2	6	315	0.00	30.101 
03:00	23.8	23.8	23.8	70	15.5	1	4	292	0.00	30.109 
03:05	23.8	23.8	23.8	70	15.5	1	3	292	0.00	30.109 
03:10	23.8	23.8	23.8	70	15.5	1	5	292	0.00	30.109 
03:15	23.6	23.6	23.6	69	14.9	2	6	338	0.00	30.119 
03:20	23.6	23.6	23.6	69	14.9	1	5	270	0.00	30.119 
03:25	23.6	23.6	23.6	69	14.9	2	5	292	0.00	30.119 
03:30	23.5	23.5	23.5	69	14.9	1	3	292	0.00	30.124 
03:35	23.5	23.5	23.5	69	14.9	2	10	292	0.00	30.124 
03:40	23.3	23.3	23.3	71	15.3	2	5	270	0.00	30.124 
03:45	23.3	23.3	23.3	69	14.7	1	3	292	0.00	30.132 
03:50	23.2	23.2	23.2	69	14.6	2	4	338	0.00	30.132 
03:55	23.2	23.2	23.2	69	14.6	1	3	270	0.00	30.132 
04:00	23.0	23.0	23.0	69	14.4	2	4	270	0.00	30.137 
04:05	23.0	23.0	23.0	69	14.4	1	4	315	0.00	30.137 
04:10	22.9	22.9	22.9	69	14.3	1	2	248	0.00	30.137 
04:15	22.9	22.9	22.9	70	14.6	0	2	248	0.00	30.141 
04:20	22.5	22.5	22.5	70	14.2	2	7	315	0.00	30.141 
04:25	22.4	22.4	22.4	70	14.1	2	7	292	0.00	30.141 
04:30	22.2	22.2	22.2	69	13.6	1	3	315	0.00	30.152 
04:35	22.2	22.2	22.2	69	13.6	1	4	338	0.00	30.152 
04:40	22.1	22.1	22.1	69	13.5	1	6	270	0.00	30.152 
04:45	21.9	21.9	21.9	70	13.6	1	4	270	0.00	30.154 
04:50	21.9	21.9	21.9	71	14.0	2	5	292	0.00	30.154 
04:55	21.8	21.8	21.8	71	13.9	1	2	315	0.00	30.154 
05:00	21.8	21.8	21.8	72	14.2	1	3	292	0.00	30.157 
05:05	21.8	21.8	21.8	73	14.5	1	4	292	0.00	30.157 
05:10	21.6	21.6	21.6	73	14.3	1	3	292	0.00	30.157 
05:15	21.4	21.4	21.4	73	14.1	1	5	315	0.00	30.173 
05:20	21.3	21.3	21.3	73	14.0	1	5	270	0.00	30.173 
05:25	21.1	21.1	21.1	73	13.8	1	3	270	0.00	30.173 
05:30	21.1	21.1	21.1	72	13.5	1	5	315	0.00	30.176 
05:35	21.1	21.1	21.1	72	13.5	1	3	338	0.00	30.176 
05:40	21.0	21.0	21.0	72	13.4	0	3	270	0.00	30.176 
05:45	20.8	20.8	20.8	73	13.5	1	4	270	0.00	30.173 
05:50	20.6	20.6	20.6	73	13.3	0	2	315	0.00	30.173 
05:55	20.3	20.3	20.3	73	13.1	0	2	315	0.00	30.173 
06:00	20.2	20.2	20.2	73	13.0	0	4	315	0.00	30.173 
06:05	19.9	19.9	19.9	73	12.7	1	4	315	0.00	30.173 
06:10	19.9	19.9	19.9	72	12.4	0	3	292	0.00	30.173 
06:15	19.7	19.7	19.7	72	12.2	0	1	292	0.00	30.183 
06:20	19.5	19.5	19.5	73	12.3	0	2	292	0.00	30.183 
06:25	19.5	19.5	19.5	73	12.3	0	2	292	0.00	30.183 
06:30	19.5	19.5	19.5	73	12.3	0	2	292	0.00	30.198 
06:35	19.5	19.5	19.5	73	12.3	0	1	292	0.00	30.198 
06:40	19.5	19.5	19.5	73	12.3	0	1	292	0.00	30.198 
06:45	19.4	19.4	19.4	74	12.5	0	1	292	0.00	30.199 
06:50	19.4	19.4	19.4	74	12.5	0	2	292	0.00	30.199 
06:55	19.4	19.4	19.4	74	12.5	0	1	292	0.00	30.199 
07:00	19.2	19.2	19.2	74	12.3	0	1	292	0.00	30.201 
07:05	19.1	19.1	19.1	74	12.2	0	1	292	0.00	30.201 
07:10	18.9	18.9	18.9	74	12.0	0	1	292	0.00	30.201 
07:15	18.9	18.9	18.9	74	12.0	0	2	292	0.00	30.213 
07:20	18.8	18.8	18.8	75	12.2	0	1	292	0.00	30.213 
07:25	18.8	18.8	18.8	75	12.2	0	1	292	0.00	30.213 
07:30	18.8	18.8	18.8	75	12.2	0	1	292	0.00	30.226 
07:35	18.8	18.8	18.8	75	12.2	0	1	292	0.00	30.226 
07:40	18.8	18.8	18.8	76	12.5	0	2	292	0.00	30.226 
07:45	18.8	18.8	18.8	76	12.5	0	1	292	0.00	30.228 
07:50	18.9	18.9	18.9	76	12.6	1	3	292	0.00	30.228 
07:55	18.9	18.9	18.9	76	12.6	1	3	292	0.00	30.228 
08:00	19.1	19.1	19.1	76	12.8	1	3	292	0.00	30.243 
08:05	19.1	19.1	19.1	75	12.5	1	3	315	0.00	30.243 
08:10	19.2	19.2	19.2	75	12.6	1	3	292	0.00	30.243 
08:15	19.1	19.1	19.1	75	12.5	1	4	270	0.00	30.256 
08:20	19.1	19.1	19.1	75	12.5	1	4	315	0.00	30.256 
08:25	19.1	19.1	19.1	75	12.5	0	2	315	0.00	30.256 
08:30	19.1	19.1	19.1	76	12.8	0	2	315	0.00	30.259 
08:35	19.1	19.1	19.1	76	12.8	0	1	315	0.00	30.259 
08:40	19.1	19.1	19.1	76	12.8	0	1	315	0.00	30.259 
08:45	19.1	19.1	19.1	76	12.8	0	2	315	0.00	30.258 
08:50	18.9	18.9	18.9	76	12.6	0	2	315	0.00	30.258 
08:55	18.9	18.9	18.9	76	12.6	0	1	315	0.00	30.258 
09:00	18.9	18.9	18.9	76	12.6	0	1	315	0.00	30.261 
09:05	19.1	19.1	19.1	76	12.8	0	2	315	0.00	30.261 
09:10	19.2	19.2	19.2	76	12.9	0	1	315	0.00	30.261 
09:15	19.4	19.4	19.4	76	13.1	0	1	315	0.00	30.263 
09:20	19.4	19.4	19.4	76	13.1	0	1	315	0.00	30.263 
09:25	19.4	19.4	19.4	76	13.1	0	1	315	0.00	30.263 
09:30	19.4	19.4	19.4	75	12.8	0	1	315	0.00	30.266 
09:35	19.4	19.4	19.4	75	12.8	0	1	315	0.00	30.266 
09:40	19.5	19.5	19.5	75	12.9	0	1	315	0.00	30.266 
09:45	19.7	19.7	19.7	74	12.8	0	1	315	0.00	30.262 
09:50	19.9	19.9	19.9	74	13.0	0	1	315	0.00	30.262 
09:55	20.0	20.0	20.0	73	12.8	0	2	315	0.00	30.262 
10:00	20.2	20.2	20.2	73	13.0	0	1	315	0.00	30.270 
10:05	20.3	20.3	20.3	73	13.1	0	2	315	0.00	30.270 
10:10	20.5	20.5	20.5	72	12.9	0	1	315	0.00	30.270 
10:15	20.6	20.6	20.6	71	12.7	0	1	315	0.00	30.268 
10:20	20.8	20.8	20.8	71	12.9	0	3	315	0.00	30.268 
10:25	21.0	21.0	21.0	69	12.5	0	3	315	0.00	30.268 
10:30	21.3	21.3	21.3	69	12.7	0	2	315	0.00	30.276 
10:35	21.4	21.4	21.4	66	11.8	0	3	315	0.00	30.276 
10:40	21.6	21.6	21.6	66	12.0	0	2	315	0.00	30.276 
10:45	21.9	21.9	21.9	64	11.6	0	4	315	0.00	30.275 
10:50	22.1	22.1	22.1	63	11.5	0	2	270	0.00	30.275 
10:55	22.2	22.2	22.2	62	11.2	0	0	---	0.00	30.275 
11:00	22.2	22.2	22.2	59	10.1	0	1	270	0.00	30.273 
11:05	22.2	22.2	22.2	60	10.5	0	2	270	0.00	30.273 
11:10	22.4	22.4	22.4	60	10.6	0	1	270	0.00	30.273 
11:15	22.5	22.5	22.5	58	10.0	0	2	270	0.00	30.273 
11:20	22.5	22.5	22.5	57	9.6	0	2	270	0.00	30.273 
11:25	22.4	22.4	22.4	56	9.1	0	2	270	0.00	30.273 
11:30	22.4	22.4	22.4	58	9.9	0	2	270	0.00	30.276 
11:35	22.4	22.4	22.4	57	9.5	1	3	315	0.00	30.276 
11:40	22.4	22.4	22.4	57	9.5	0	2	315	0.00	30.276 
11:45	22.5	22.5	22.5	57	9.6	0	3	315	0.00	30.275 
11:50	22.4	22.4	22.4	56	9.1	0	2	315	0.00	30.275 
11:55	22.4	22.4	22.4	55	8.7	0	2	315	0.00	30.275 
12:00	22.5	22.5	22.5	55	8.8	0	1	315	0.00	30.272 
12:05	22.5	22.5	22.5	54	8.4	0	2	315	0.00	30.272 
12:10	22.4	22.4	22.4	54	8.3	0	2	315	0.00	30.272 
12:15	22.5	22.5	22.5	53	8.0	0	2	315	0.00	30.264 
12:20	22.7	22.7	22.7	53	8.2	0	3	315	0.00	30.264 
12:25	22.9	22.9	22.9	54	8.8	0	1	315	0.00	30.264 
12:30	23.0	23.0	23.0	54	8.9	0	1	315	0.00	30.253 
12:35	23.3	23.3	23.3	53	8.7	0	2	315	0.00	30.253 
12:40	23.6	23.6	23.6	52	8.6	1	4	315	0.00	30.253 
12:45	23.8	23.8	23.8	52	8.8	0	2	315	0.00	30.241 
12:50	24.1	24.1	24.1	52	9.1	0	2	315	0.00	30.241 
12:55	24.2	24.2	24.2	52	9.1	0	2	315	0.00	30.241 
13:00	24.4	24.4	24.4	51	8.9	0	2	315	0.00	30.230 
13:05	24.4	24.4	24.4	50	8.5	0	2	315	0.00	30.230 
13:10	23.9	23.9	23.9	50	8.0	0	2	315	0.00	30.230 
13:15	23.8	23.8	23.8	50	7.9	0	2	315	0.00	30.228 
13:20	23.6	23.6	23.6	50	7.7	0	1	45	0.00	30.228 
13:25	23.5	23.5	23.5	51	8.1	0	2	22	0.00	30.228 
13:30	23.5	23.5	23.5	52	8.5	0	2	22	0.00	30.228 
13:35	23.5	23.5	23.5	52	8.5	0	2	22	0.00	30.228 
13:40	23.5	23.5	23.5	53	8.9	0	1	22	0.00	30.228 
13:45	23.6	23.6	23.6	52	8.6	0	3	22	0.00	30.214 
13:50	23.6	23.6	23.6	53	9.0	0	2	22	0.00	30.214 
13:55	23.8	23.8	23.8	52	8.8	0	1	22	0.00	30.214 
14:00	23.9	23.9	23.9	53	9.3	1	5	90	0.00	30.213 
14:05	24.2	24.2	24.2	53	9.6	0	2	90	0.00	30.213 
14:10	24.2	24.2	24.2	54	10.0	0	3	90	0.00	30.213 
14:15	24.5	24.5	24.5	55	10.7	0	2	68	0.00	30.208 
14:20	24.4	24.4	24.4	53	9.8	1	4	338	0.00	30.208 
14:25	24.7	24.7	24.7	54	10.5	0	3	338	0.00	30.208 
14:30	24.7	24.7	24.7	53	10.0	0	2	315	0.00	30.200 
14:35	25.0	25.0	25.0	51	9.5	1	3	270	0.00	30.200 
14:40	25.0	25.0	25.0	50	9.0	1	3	270	0.00	30.200 
14:45	24.5	24.5	24.5	51	9.0	0	3	270	0.00	30.197 
14:50	24.1	24.1	24.1	52	9.1	0	2	270	0.00	30.197 
14:55	23.8	23.8	23.8	54	9.6	0	2	270	0.00	30.197 
15:00	23.6	23.6	23.6	54	9.4	0	2	270	0.00	30.199 
15:05	23.6	23.6	23.6	55	9.8	0	1	270	0.00	30.199 
15:10	23.5	23.5	23.5	54	9.3	0	1	270	0.00	30.199 
15:15	23.3	23.3	23.3	55	9.6	0	1	270	0.00	30.196 
15:20	23.5	23.5	23.5	55	9.7	0	1	270	0.00	30.196 
15:25	23.5	23.5	23.5	55	9.7	0	1	270	0.00	30.196 
15:30	23.6	23.6	23.6	54	9.4	0	1	270	0.00	30.198 
15:35	23.6	23.6	23.6	53	9.0	0	2	270	0.00	30.198 
15:40	23.6	23.6	23.6	54	9.4	0	2	270	0.00	30.198 
15:45	23.6	23.6	23.6	52	8.6	0	1	270	0.00	30.199 
15:50	23.8	23.8	23.8	53	9.2	0	1	270	0.00	30.199 
15:55	23.6	23.6	23.6	53	9.0	0	2	270	0.00	30.199 
16:00	23.6	23.6	23.6	54	9.4	0	2	270	0.00	30.205 
16:05	23.5	23.5	23.5	54	9.3	0	2	270	0.00	30.205 
16:10	23.5	23.5	23.5	53	8.9	0	1	270	0.00	30.205 
16:15	23.5	23.5	23.5	53	8.9	0	2	270	0.00	30.210 
16:20	23.5	23.5	23.5	54	9.3	0	1	270	0.00	30.210 
16:25	23.3	23.3	23.3	54	9.1	0	2	270	0.00	30.210 
16:30	23.2	23.2	23.2	54	9.1	0	3	270	0.00	30.206 
16:35	23.0	23.0	23.0	54	8.9	0	1	270	0.00	30.206 
16:40	22.9	22.9	22.9	55	9.2	0	2	270	0.00	30.206 
16:45	22.7	22.7	22.7	55	9.0	0	1	270	0.00	30.202 
16:50	22.5	22.5	22.5	56	9.2	0	1	270	0.00	30.202 
16:55	22.5	22.5	22.5	56	9.2	0	1	270	0.00	30.202 
17:00	22.4	22.4	22.4	56	9.1	0	1	270	0.00	30.207 
17:05	22.2	22.2	22.2	56	8.9	0	2	270	0.00	30.207 
17:10	22.2	22.2	22.2	56	8.9	0	1	270	0.00	30.207 
17:15	22.2	22.2	22.2	57	9.3	0	2	270	0.00	30.213 
17:20	22.1	22.1	22.1	56	8.8	0	2	270	0.00	30.213 
17:25	22.1	22.1	22.1	57	9.2	0	3	270	0.00	30.213 
17:30	22.1	22.1	22.1	58	9.6	0	2	270	0.00	30.216 
17:35	21.9	21.9	21.9	57	9.0	0	1	270	0.00	30.216 
17:40	21.9	21.9	21.9	58	9.4	0	1	270	0.00	30.216 
17:45	21.8	21.8	21.8	58	9.3	0	3	270	0.00	30.215 
17:50	21.6	21.6	21.6	58	9.1	0	3	270	0.00	30.215 
17:55	21.6	21.6	21.6	58	9.1	0	1	270	0.00	30.215 
18:00	21.6	21.6	21.6	58	9.1	0	2	270	0.00	30.211 
18:05	21.4	21.4	21.4	58	8.9	0	2	270	0.00	30.211 
18:10	21.6	21.6	21.6	58	9.1	0	1	270	0.00	30.211 
18:15	21.4	21.4	21.4	58	8.9	0	1	270	0.00	30.215 
18:20	21.4	21.4	21.4	58	8.9	0	1	270	0.00	30.215 
18:25	21.4	21.4	21.4	59	9.3	0	1	270	0.00	30.215 
18:30	21.3	21.3	21.3	60	9.6	0	2	270	0.00	30.220 
18:35	21.1	21.1	21.1	60	9.4	0	1	270	0.00	30.220 
18:40	21.1	21.1	21.1	60	9.4	0	2	270	0.00	30.220 
18:45	21.1	21.1	21.1	60	9.4	0	1	270	0.00	30.218 
18:50	21.1	21.1	21.1	61	9.8	0	1	270	0.00	30.218 
18:55	21.1	21.1	21.1	61	9.8	0	1	270	0.00	30.218 
19:00	21.1	21.1	21.1	61	9.8	0	3	270	0.00	30.209 
19:05	21.0	21.0	21.0	60	9.3	0	2	270	0.00	30.209 
19:10	21.0	21.0	21.0	61	9.7	0	3	270	0.00	30.209 
19:15	21.0	21.0	21.0	61	9.7	0	1	270	0.00	30.214 
19:20	21.0	21.0	21.0	61	9.7	0	3	270	0.00	30.214 
19:25	21.0	21.0	21.0	62	10.1	0	3	270	0.00	30.214 
19:30	21.0	21.0	21.0	62	10.1	1	4	248	0.00	30.211 
19:35	21.0	21.0	21.0	62	10.1	0	3	248	0.00	30.211 
19:40	21.0	21.0	21.0	62	10.1	0	2	248	0.00	30.211 
19:45	20.8	20.8	20.8	63	10.2	1	5	248	0.00	30.218 
19:50	20.6	20.6	20.6	63	10.0	1	3	270	0.00	30.218 
19:55	20.5	20.5	20.5	64	10.3	0	3	270	0.00	30.218 
20:00	20.3	20.3	20.3	64	10.1	0	2	270	0.00	30.218 
20:05	20.0	20.0	20.0	65	10.2	0	2	270	0.00	30.218 
20:10	19.9	19.9	19.9	65	10.1	0	2	270	0.00	30.218 
20:15	19.7	19.7	19.7	65	9.9	0	2	270	0.00	30.207 
20:20	19.4	19.4	19.4	66	9.9	0	2	270	0.00	30.207 
20:25	19.4	19.4	19.4	66	9.9	1	3	270	0.00	30.207 
20:30	19.2	19.2	19.2	66	9.7	0	3	270	0.00	30.208 
20:35	19.2	19.2	19.2	66	9.7	0	3	270	0.00	30.208 
20:40	19.1	19.1	19.1	67	10.0	0	2	270	0.00	30.208 
20:45	19.1	19.1	19.1	67	10.0	0	1	270	0.00	30.207 
20:50	19.1	19.1	19.1	68	10.3	0	3	270	0.00	30.207 
20:55	19.1	19.1	19.1	68	10.3	0	4	270	0.00	30.207 
21:00	18.9	18.9	18.9	68	10.1	1	3	270	0.00	30.205 
21:05	18.9	18.9	18.9	68	10.1	1	3	270	0.00	30.205 
21:10	18.8	18.8	18.8	68	10.0	1	4	270	0.00	30.205 
21:15	18.8	18.8	18.8	69	10.3	0	3	270	0.00	30.202 
21:20	18.8	18.8	18.8	69	10.3	0	2	270	0.00	30.202 
21:25	18.8	18.8	18.8	69	10.3	1	4	270	0.00	30.202 
21:30	18.6	18.6	18.6	69	10.2	0	1	270	0.00	30.205 
21:35	18.6	18.6	18.6	69	10.2	0	2	270	0.00	30.205 
21:40	18.6	18.6	18.6	69	10.2	1	3	270	0.00	30.205 
21:45	18.6	18.6	18.6	68	9.8	1	4	248	0.00	30.205 
21:50	18.6	18.6	18.6	68	9.8	0	3	248	0.00	30.205 
21:55	18.6	18.6	18.6	68	9.8	1	3	248	0.00	30.205 
22:00	18.6	18.6	18.6	67	9.5	0	2	248	0.00	30.191 
22:05	18.6	18.6	18.6	67	9.5	0	2	248	0.00	30.191 
22:10	18.6	18.6	18.6	67	9.5	0	3	248	0.00	30.191 
22:15	18.6	18.6	18.6	67	9.5	0	1	248	0.00	30.188 
22:20	18.6	18.6	18.6	67	9.5	0	2	248	0.00	30.188 
22:25	18.8	18.8	18.8	67	9.7	0	2	248	0.00	30.188 
22:30	18.8	18.8	18.8	67	9.7	0	3	248	0.00	30.184 
22:35	18.8	18.8	18.8	67	9.7	0	3	248	0.00	30.184 
22:40	18.8	18.8	18.8	68	10.0	1	3	270	0.00	30.184 
22:45	18.8	18.8	18.8	68	10.0	0	2	270	0.00	30.178 
22:50	18.8	18.8	18.8	68	10.0	0	2	270	0.00	30.178 
22:55	18.8	18.8	18.8	69	10.3	0	3	270	0.00	30.178 
23:00	18.8	18.8	18.8	69	10.3	1	5	270	0.00	30.181 
23:05	18.8	18.8	18.8	71	11.0	0	2	248	0.00	30.181 
23:10	18.8	18.8	18.8	72	11.3	0	1	248	0.00	30.181 
23:15	18.6	18.6	18.6	73	11.4	0	3	248	0.00	30.179 
23:20	18.4	18.4	18.4	75	11.8	0	2	248	0.00	30.179 
23:25	18.4	18.4	18.4	76	12.1	0	2	248	0.00	30.179 
23:30	18.3	18.3	18.3	77	12.3	0	2	248	0.00	30.178 
23:35	18.3	18.3	18.3	77	12.3	0	1	248	0.00	30.178 
23:40	18.3	18.3	18.3	78	12.6	1	3	248	0.00	30.178 
23:45	18.3	18.3	18.3	79	12.9	0	2	248	0.00	30.175 
23:50	18.1	18.1	18.1	80	13.0	1	3	248	0.00	30.175 
23:55	18.1	18.1	18.1	81	13.3	0	2	248	0.00	30.175 

CoCoRaHS
IN-AL-39
A2 Web Hosting
Creative Commons License
GoDaddy
search engine by freefind advanced

loaded 2018-11-20 03:35:06 • last modified 2010-11-18 10:43:29
Privacy PolicyDisclaimer
• wx.awcolley.com is powered by PmWiki v.2002016 •
• all content (unless otherwise noted) © 2018 A W Colley